Time;durP1;ratioP1;P1;durP2;ratioP2;P2;SDS_P1;SDS_P2;PMS_P1;PMS_P2;Temp;Humidity;BMP_temperature;BMP_pressure;BME280_temperature;BME280_humidity;BME280_pressure;Samples;Min_cycle;Max_cycle;Signal;HPM_P1;HPM_P2
2022/03/20 00:00:39;;;;;;;22.52;15.48;;;;;;;;;;5025013;28;20554;-56
2022/03/20 00:03:07;;;;;;;24.05;15.77;;;;;;;;;;5030514;28;20021;-55
2022/03/20 00:05:34;;;;;;;22.17;14.88;;;;;;;;;;5024033;28;20029;-56
2022/03/20 00:08:00;;;;;;;22.13;14.85;;;;;;;;;;5028493;28;20484;-56
2022/03/20 00:10:26;;;;;;;23.98;15.52;;;;;;;;;;5025605;28;20044;-57
2022/03/20 00:12:53;;;;;;;22.58;15.48;;;;;;;;;;5028673;28;20033;-56
2022/03/20 00:15:20;;;;;;;23.08;15.73;;;;;;;;;;5025636;28;20029;-55
2022/03/20 00:17:46;;;;;;;26.90;17.25;;;;;;;;;;5022263;28;20033;-55
2022/03/20 00:20:12;;;;;;;22.90;16.70;;;;;;;;;;5025637;28;20029;-57
2022/03/20 00:22:38;;;;;;;27.35;16.92;;;;;;;;;;5025985;28;20246;-56
2022/03/20 00:25:04;;;;;;;24.13;17.17;;;;;;;;;;5028084;28;20024;-57
2022/03/20 00:27:30;;;;;;;26.73;17.67;;;;;;;;;;5030998;28;20033;-56
2022/03/20 00:29:56;;;;;;;23.85;17.23;;;;;;;;;;5026267;28;20028;-55
2022/03/20 00:32:22;;;;;;;23.42;16.85;;;;;;;;;;5028338;28;20033;-56
2022/03/20 00:34:49;;;;;;;25.05;16.67;;;;;;;;;;5028363;28;20599;-56
2022/03/20 00:37:15;;;;;;;25.63;16.90;;;;;;;;;;5030995;28;20041;-55
2022/03/20 00:39:41;;;;;;;25.17;16.80;;;;;;;;;;5024152;28;20688;-56
2022/03/20 00:42:07;;;;;;;26.85;17.75;;;;;;;;;;5025412;28;20124;-56
2022/03/20 00:44:33;;;;;;;22.83;16.63;;;;;;;;;;5026947;28;20072;-56
2022/03/20 00:46:59;;;;;;;27.83;18.15;;;;;;;;;;5029299;28;20022;-56
2022/03/20 00:49:25;;;;;;;27.52;17.95;;;;;;;;;;5025717;28;20071;-56
2022/03/20 00:51:51;;;;;;;29.70;17.90;;;;;;;;;;5028587;28;20013;-54
2022/03/20 00:54:17;;;;;;;25.92;17.52;;;;;;;;;;5027792;28;20060;-55
2022/03/20 00:56:43;;;;;;;28.38;16.98;;;;;;;;;;5026025;28;20026;-56
2022/03/20 00:59:09;;;;;;;28.05;18.17;;;;;;;;;;5023950;28;20032;-54
2022/03/20 01:01:35;;;;;;;26.33;16.95;;;;;;;;;;5022489;28;20485;-56
2022/03/20 01:04:01;;;;;;;25.67;17.13;;;;;;;;;;5028452;28;20013;-54
2022/03/20 01:06:27;;;;;;;22.10;15.82;;;;;;;;;;5024691;28;20233;-56
2022/03/20 01:08:53;;;;;;;25.17;16.98;;;;;;;;;;5025401;28;20442;-55
2022/03/20 01:11:19;;;;;;;26.83;18.30;;;;;;;;;;5021732;28;20029;-56
2022/03/20 01:13:45;;;;;;;26.98;17.08;;;;;;;;;;5026052;28;20075;-56
2022/03/20 01:16:12;;;;;;;28.23;17.55;;;;;;;;;;5027978;28;20507;-56
2022/03/20 01:18:39;;;;;;;24.55;16.42;;;;;;;;;;5025564;28;20048;-56
2022/03/20 01:21:06;;;;;;;25.27;17.25;;;;;;;;;;5027668;28;20087;-56
2022/03/20 01:23:32;;;;;;;28.20;17.17;;;;;;;;;;5024212;28;20048;-56
2022/03/20 01:25:58;;;;;;;28.05;16.88;;;;;;;;;;5028659;28;20503;-56
2022/03/20 01:28:24;;;;;;;26.15;16.95;;;;;;;;;;5023130;28;20040;-57
2022/03/20 01:30:50;;;;;;;25.33;16.95;;;;;;;;;;5026586;28;20520;-56
2022/03/20 01:33:17;;;;;;;23.33;15.85;;;;;;;;;;5026361;28;20619;-55
2022/03/20 01:35:43;;;;;;;25.65;17.40;;;;;;;;;;5023794;28;20025;-57
2022/03/20 01:38:12;;;;;;;31.08;17.80;;;;;;;;;;5027875;28;20075;-56
2022/03/20 01:40:38;;;;;;;24.52;16.50;;;;;;;;;;5024417;28;20434;-57
2022/03/20 01:43:04;;;;;;;27.30;17.38;;;;;;;;;;5031471;28;20537;-56
2022/03/20 01:45:30;;;;;;;25.42;16.10;;;;;;;;;;5032264;28;20045;-56
2022/03/20 01:47:56;;;;;;;28.15;17.48;;;;;;;;;;5029371;28;20044;-55
2022/03/20 01:50:24;;;;;;;27.42;17.40;;;;;;;;;;5027897;28;20037;-55
2022/03/20 01:52:51;;;;;;;25.83;16.85;;;;;;;;;;5026227;28;20041;-56
2022/03/20 01:55:18;;;;;;;28.25;17.65;;;;;;;;;;5026062;28;20488;-56
2022/03/20 01:57:44;;;;;;;26.10;17.20;;;;;;;;;;5024162;28;20100;-55
2022/03/20 02:00:12;;;;;;;24.55;16.55;;;;;;;;;;5027190;28;20132;-55
2022/03/20 02:02:38;;;;;;;26.63;17.67;;;;;;;;;;5028963;28;20043;-55
2022/03/20 02:05:06;;;;;;;25.75;17.33;;;;;;;;;;5028139;28;20366;-55
2022/03/20 02:07:37;;;;;;;28.40;16.73;;;;;;;;;;5028226;28;20083;-56
2022/03/20 02:10:04;;;;;;;25.70;16.33;;;;;;;;;;5030219;28;20068;-56
2022/03/20 02:12:31;;;;;;;25.92;17.17;;;;;;;;;;5031678;28;20108;-55
2022/03/20 02:14:58;;;;;;;25.88;16.75;;;;;;;;;;5029077;28;20574;-56
2022/03/20 02:17:26;;;;;;;28.50;17.50;;;;;;;;;;5028100;28;20025;-55
2022/03/20 02:19:52;;;;;;;26.77;17.20;;;;;;;;;;5025607;28;20033;-55
2022/03/20 02:22:18;;;;;;;28.58;17.10;;;;;;;;;;5028101;28;20026;-56
2022/03/20 02:24:48;;;;;;;26.35;18.02;;;;;;;;;;5028506;28;20556;-56
2022/03/20 02:27:17;;;;;;;26.85;17.52;;;;;;;;;;5026950;28;20044;-56
2022/03/20 02:29:44;;;;;;;25.83;16.55;;;;;;;;;;5027811;28;20022;-56
2022/03/20 02:32:12;;;;;;;25.85;16.80;;;;;;;;;;5025863;28;20034;-54
2022/03/20 02:34:38;;;;;;;27.67;16.83;;;;;;;;;;5030742;28;20037;-56
2022/03/20 02:37:05;;;;;;;25.42;16.60;;;;;;;;;;5030346;28;20473;-56
2022/03/20 02:39:32;;;;;;;24.38;16.88;;;;;;;;;;5027919;28;20040;-56
2022/03/20 02:42:00;;;;;;;29.20;17.23;;;;;;;;;;5028812;28;20025;-55
2022/03/20 02:45:05;;;;;;;27.17;16.60;;;;;;;;;;5026305;28;20087;-55
2022/03/20 02:47:32;;;;;;;25.67;16.67;;;;;;;;;;4983329;28;20137;-55
2022/03/20 02:50:18;;;;;;;25.48;16.60;;;;;;;;;;4983786;28;20022;-56
2022/03/20 02:52:52;;;;;;;30.23;17.05;;;;;;;;;;5010594;28;20037;-55
2022/03/20 02:55:18;;;;;;;;;;;;;;;;;;5024415;28;20654;-56
2022/03/20 02:57:44;;;;;;;25.63;16.63;;;;;;;;;;5029605;28;19918;-54
2022/03/20 03:00:11;;;;;;;24.77;16.63;;;;;;;;;;5035552;28;20385;-57
2022/03/20 03:02:45;;;;;;;30.30;16.60;;;;;;;;;;5026195;28;20116;-56
2022/03/20 03:05:17;;;;;;;27.75;17.85;;;;;;;;;;5029587;28;20053;-56
2022/03/20 03:13:14;;;;;;;28.05;17.13;;;;;;;;;;5026971;28;20057;-55
2022/03/20 03:15:41;;;;;;;25.58;16.50;;;;;;;;;;5024541;28;20056;-57
2022/03/20 03:18:07;;;;;;;24.35;17.40;;;;;;;;;;5028375;28;20052;-57
2022/03/20 03:20:33;;;;;;;26.55;16.75;;;;;;;;;;5027108;28;20053;-55
2022/03/20 03:22:59;;;;;;;26.17;15.60;;;;;;;;;;5029324;28;20499;-56
2022/03/20 03:25:25;;;;;;;28.00;16.80;;;;;;;;;;5025672;28;20441;-54
2022/03/20 03:27:51;;;;;;;27.27;17.35;;;;;;;;;;5030744;28;20036;-56
2022/03/20 03:30:18;;;;;;;27.33;17.13;;;;;;;;;;5028246;28;20034;-55
2022/03/20 03:32:44;;;;;;;25.13;16.95;;;;;;;;;;5031843;28;20060;-56
2022/03/20 03:37:56;;;;;;;25.77;16.08;;;;;;;;;;5024647;28;20064;-55
2022/03/20 03:40:22;;;;;;;26.67;17.20;;;;;;;;;;5025171;28;20048;-56
2022/03/20 03:42:48;;;;;;;24.70;16.25;;;;;;;;;;5025763;28;20029;-55
2022/03/20 03:45:14;;;;;;;23.65;16.63;;;;;;;;;;5031803;28;20025;-56
2022/03/20 03:47:40;;;;;;;27.20;16.63;;;;;;;;;;5028249;28;20022;-55
2022/03/20 03:50:07;;;;;;;25.08;16.45;;;;;;;;;;5029540;28;20512;-56
2022/03/20 03:52:33;;;;;;;27.23;16.55;;;;;;;;;;4990558;28;1075294;-56
2022/03/20 03:54:59;;;;;;;26.90;17.30;;;;;;;;;;5029055;28;20115;-56
2022/03/20 03:57:25;;;;;;;26.52;17.13;;;;;;;;;;5030397;28;20367;-56
2022/03/20 03:59:51;;;;;;;26.48;17.15;;;;;;;;;;5027525;28;20045;-57
2022/03/20 04:02:17;;;;;;;26.80;15.85;;;;;;;;;;5036928;28;20479;-55
2022/03/20 04:04:43;;;;;;;24.95;17.05;;;;;;;;;;5034682;28;20041;-56
2022/03/20 04:07:09;;;;;;;27.73;16.63;;;;;;;;;;5030202;28;20037;-56
2022/03/20 04:09:35;;;;;;;25.67;16.33;;;;;;;;;;5022148;28;20357;-54
2022/03/20 04:12:01;;;;;;;30.58;17.33;;;;;;;;;;5027980;28;20029;-57
2022/03/20 04:14:28;;;;;;;28.70;16.88;;;;;;;;;;5026105;28;20025;-56
2022/03/20 04:16:54;;;;;;;31.20;17.17;;;;;;;;;;5029335;28;20392;-55
2022/03/20 04:19:20;;;;;;;26.50;18.10;;;;;;;;;;5034375;28;20028;-54
2022/03/20 04:21:48;;;;;;;29.00;17.40;;;;;;;;;;5026637;28;20017;-56
2022/03/20 04:24:14;;;;;;;25.10;15.93;;;;;;;;;;5031133;28;20020;-57
2022/03/20 04:26:40;;;;;;;27.77;17.75;;;;;;;;;;5029730;28;20067;-54
2022/03/20 04:29:06;;;;;;;25.60;16.85;;;;;;;;;;5026238;28;20803;-55
2022/03/20 04:31:32;;;;;;;27.10;16.38;;;;;;;;;;5039328;28;20021;-55
2022/03/20 04:33:58;;;;;;;27.38;16.98;;;;;;;;;;5030796;28;20033;-55
2022/03/20 04:36:25;;;;;;;30.58;16.63;;;;;;;;;;5026740;28;20060;-56
2022/03/20 04:38:52;;;;;;;26.95;16.15;;;;;;;;;;5030349;28;20025;-54
2022/03/20 04:41:18;;;;;;;26.73;16.70;;;;;;;;;;5025881;28;20079;-56
2022/03/20 04:43:45;;;;;;;25.55;17.15;;;;;;;;;;5025785;28;20037;-56
2022/03/20 04:46:11;;;;;;;28.52;17.02;;;;;;;;;;5033274;28;20025;-56
2022/03/20 04:59:36;;;;;;;22.80;15.98;;;;;;;;;;5023107;28;20048;-55
2022/03/20 05:02:02;;;;;;;25.90;16.92;;;;;;;;;;5030734;28;20439;-56
2022/03/20 05:04:28;;;;;;;26.75;16.92;;;;;;;;;;5026942;28;20029;-57
2022/03/20 05:06:54;;;;;;;30.35;17.15;;;;;;;;;;5031357;28;20029;-56
2022/03/20 05:14:49;;;;;;;27.73;16.10;;;;;;;;;;5025682;28;20040;-56
2022/03/20 05:17:15;;;;;;;25.73;15.82;;;;;;;;;;5025039;28;20033;-56
2022/03/20 05:19:42;;;;;;;23.65;16.08;;;;;;;;;;5029577;28;20063;-55
2022/03/20 05:22:10;;;;;;;25.70;16.83;;;;;;;;;;5028107;28;20029;-56
2022/03/20 05:24:36;;;;;;;31.48;16.02;;;;;;;;;;5018941;28;20483;-56
2022/03/20 05:27:04;;;;;;;26.73;16.38;;;;;;;;;;5024579;28;20013;-56
2022/03/20 05:29:30;;;;;;;24.35;16.00;;;;;;;;;;5031004;28;20029;-56
2022/03/20 05:31:56;;;;;;;27.10;16.92;;;;;;;;;;5026350;28;20100;-55
2022/03/20 05:34:22;;;;;;;26.13;16.20;;;;;;;;;;5027578;28;20526;-56
2022/03/20 05:36:49;;;;;;;24.15;15.75;;;;;;;;;;5025700;28;20033;-55
2022/03/20 05:39:15;;;;;;;27.20;16.88;;;;;;;;;;5022377;28;20185;-56
2022/03/20 05:41:48;;;;;;;28.42;17.58;;;;;;;;;;5027481;28;20025;-56
2022/03/20 05:44:18;;;;;;;26.52;15.63;;;;;;;;;;5027158;28;20469;-56
2022/03/20 05:46:46;;;;;;;26.42;16.83;;;;;;;;;;5025639;28;20187;-56
2022/03/20 05:49:12;;;;;;;27.98;16.65;;;;;;;;;;5024144;28;20045;-56
2022/03/20 05:51:38;;;;;;;23.83;16.08;;;;;;;;;;5028232;28;20540;-56
2022/03/20 05:54:05;;;;;;;25.63;16.77;;;;;;;;;;5025028;28;20033;-56
2022/03/20 05:59:16;;;;;;;25.58;16.15;;;;;;;;;;5025828;28;20040;-55
2022/03/20 06:01:42;;;;;;;27.55;16.50;;;;;;;;;;5027587;28;20381;-56
2022/03/20 06:04:08;;;;;;;24.00;15.18;;;;;;;;;;5034937;28;20029;-55
2022/03/20 06:06:38;;;;;;;24.20;16.23;;;;;;;;;;5029190;28;20518;-55
2022/03/20 06:09:04;;;;;;;24.38;15.55;;;;;;;;;;5030156;28;20018;-56
2022/03/20 06:11:34;;;;;;;27.40;16.70;;;;;;;;;;5025513;28;20099;-56
2022/03/20 06:14:00;;;;;;;26.25;16.48;;;;;;;;;;5029935;28;20026;-56
2022/03/20 06:16:26;;;;;;;27.73;17.15;;;;;;;;;;5029713;28;20037;-56
2022/03/20 06:18:53;;;;;;;28.27;16.80;;;;;;;;;;5029463;28;20025;-56
2022/03/20 06:21:19;;;;;;;26.67;16.35;;;;;;;;;;5025505;28;20029;-57
2022/03/20 06:23:45;;;;;;;26.20;16.55;;;;;;;;;;5022968;28;20430;-55
2022/03/20 06:26:11;;;;;;;25.63;16.38;;;;;;;;;;5026970;28;20025;-56
2022/03/20 06:28:40;;;;;;;25.95;16.50;;;;;;;;;;5028446;28;20081;-57
2022/03/20 06:31:06;;;;;;;27.00;16.15;;;;;;;;;;5024368;28;20026;-57
2022/03/20 06:33:32;;;;;;;28.25;16.58;;;;;;;;;;5032556;28;20385;-56
2022/03/20 06:35:58;;;;;;;24.95;15.88;;;;;;;;;;5023536;28;20029;-57
2022/03/20 06:38:24;;;;;;;25.13;16.77;;;;;;;;;;5024794;28;20045;-56
2022/03/20 06:40:50;;;;;;;26.77;16.38;;;;;;;;;;5025878;28;20022;-56
2022/03/20 06:43:16;;;;;;;27.25;16.58;;;;;;;;;;5022918;28;20710;-56
2022/03/20 06:45:42;;;;;;;27.50;16.08;;;;;;;;;;5023536;28;20551;-55
2022/03/20 06:48:08;;;;;;;23.42;15.63;;;;;;;;;;5034284;28;20100;-56
2022/03/20 06:50:34;;;;;;;25.67;16.10;;;;;;;;;;5025951;28;20025;-56
2022/03/20 06:53:04;;;;;;;27.08;16.40;;;;;;;;;;5027378;28;20179;-56
2022/03/20 06:55:30;;;;;;;24.42;16.45;;;;;;;;;;5029813;28;20033;-56
2022/03/20 06:57:57;;;;;;;26.77;16.85;;;;;;;;;;5031708;28;20083;-55
2022/03/20 07:00:25;;;;;;;25.65;16.60;;;;;;;;;;5030170;28;20037;-57
2022/03/20 07:02:53;;;;;;;26.23;16.73;;;;;;;;;;5035862;28;20473;-55
2022/03/20 07:05:19;;;;;;;24.42;16.17;;;;;;;;;;5033953;28;20037;-55
2022/03/20 07:07:45;;;;;;;29.15;16.25;;;;;;;;;;5029343;28;20025;-56
2022/03/20 07:10:13;;;;;;;25.27;16.20;;;;;;;;;;5031050;28;20029;-55
2022/03/20 07:12:39;;;;;;;25.63;16.60;;;;;;;;;;5031876;28;20067;-56
2022/03/20 07:15:06;;;;;;;28.23;15.98;;;;;;;;;;5033507;28;20110;-56
2022/03/20 07:17:34;;;;;;;31.23;19.42;;;;;;;;;;5028455;28;20578;-56
2022/03/20 07:20:00;;;;;;;26.83;16.42;;;;;;;;;;5033820;28;20017;-55
2022/03/20 07:22:26;;;;;;;27.77;16.17;;;;;;;;;;5026354;28;20029;-55
2022/03/20 07:24:52;;;;;;;26.80;17.38;;;;;;;;;;5030765;28;20036;-57
2022/03/20 07:30:03;;;;;;;26.80;16.88;;;;;;;;;;5030767;28;20335;-55
2022/03/20 07:32:29;;;;;;;25.80;15.10;;;;;;;;;;5023972;28;20052;-54
2022/03/20 07:34:55;;;;;;;24.67;16.15;;;;;;;;;;5036005;28;20420;-55
2022/03/20 07:37:21;;;;;;;27.73;16.90;;;;;;;;;;5028377;28;20034;-56
2022/03/20 07:39:49;;;;;;;27.00;16.02;;;;;;;;;;5031489;28;20529;-57
2022/03/20 07:42:16;;;;;;;28.13;17.17;;;;;;;;;;5027788;28;20030;-55
2022/03/20 07:44:42;;;;;;;27.60;17.23;;;;;;;;;;5029457;28;20044;-57
2022/03/20 07:47:08;;;;;;;29.42;17.67;;;;;;;;;;5023195;28;20029;-56
2022/03/20 07:49:38;;;;;;;28.80;17.90;;;;;;;;;;5030189;28;20025;-57
2022/03/20 07:52:06;;;;;;;28.98;17.83;;;;;;;;;;5028720;28;20052;-56
2022/03/20 07:54:36;;;;;;;27.73;16.88;;;;;;;;;;5026032;28;20037;-56
2022/03/20 07:57:02;;;;;;;24.45;15.98;;;;;;;;;;5024990;28;20172;-55
2022/03/20 07:59:28;;;;;;;28.38;17.80;;;;;;;;;;5022495;28;20033;-54
2022/03/20 08:01:54;;;;;;;27.35;17.05;;;;;;;;;;5024466;28;20711;-56
2022/03/20 08:04:21;;;;;;;28.45;18.45;;;;;;;;;;5031069;28;20029;-56
2022/03/20 08:06:47;;;;;;;27.00;16.92;;;;;;;;;;5022908;28;20029;-55
2022/03/20 08:09:13;;;;;;;30.67;17.90;;;;;;;;;;5017166;28;20033;-55
2022/03/20 08:11:39;;;;;;;29.50;18.73;;;;;;;;;;5016818;28;20743;-55
2022/03/20 08:14:08;;;;;;;33.40;20.33;;;;;;;;;;5014587;28;20137;-55
2022/03/20 08:16:38;;;;;;;31.58;19.92;;;;;;;;;;5016045;28;20207;-55
2022/03/20 08:19:05;;;;;;;32.92;18.95;;;;;;;;;;5015849;28;20114;-55
2022/03/20 08:21:33;;;;;;;35.10;22.10;;;;;;;;;;5020810;28;20442;-56
2022/03/20 08:24:01;;;;;;;33.08;20.27;;;;;;;;;;5020960;28;20036;-56
2022/03/20 08:26:27;;;;;;;38.47;24.02;;;;;;;;;;5022707;28;20061;-55
2022/03/20 08:28:53;;;;;;;36.70;23.17;;;;;;;;;;5023766;28;20025;-55
2022/03/20 08:31:19;;;;;;;38.50;22.38;;;;;;;;;;5022469;28;20037;-54
2022/03/20 08:33:45;;;;;;;40.58;26.10;;;;;;;;;;5021776;28;20531;-57
2022/03/20 08:36:13;;;;;;;41.15;26.77;;;;;;;;;;5020532;28;20060;-54
2022/03/20 08:38:39;;;;;;;39.35;25.00;;;;;;;;;;5021981;28;20815;-55
2022/03/20 08:41:05;;;;;;;39.95;24.38;;;;;;;;;;5019576;28;20028;-56
2022/03/20 08:43:31;;;;;;;40.15;25.05;;;;;;;;;;5023885;28;20759;-56
2022/03/20 08:45:57;;;;;;;35.90;24.20;;;;;;;;;;5024833;28;20033;-55
2022/03/20 08:48:23;;;;;;;42.33;24.65;;;;;;;;;;5027151;28;20030;-55
2022/03/20 08:50:50;;;;;;;34.13;22.27;;;;;;;;;;5023835;28;20021;-54
2022/03/20 08:53:17;;;;;;;38.72;25.45;;;;;;;;;;5021733;28;20042;-56
2022/03/20 08:55:44;;;;;;;37.22;24.33;;;;;;;;;;5023179;28;20071;-56
2022/03/20 08:58:10;;;;;;;34.40;23.15;;;;;;;;;;5021915;28;20029;-56
2022/03/20 09:00:36;;;;;;;42.63;25.05;;;;;;;;;;5022868;28;20029;-55
2022/03/20 09:03:02;;;;;;;36.85;24.90;;;;;;;;;;5025069;28;20128;-56
2022/03/20 09:05:28;;;;;;;38.35;24.63;;;;;;;;;;5024814;28;20500;-56
2022/03/20 09:07:57;;;;;;;34.92;23.02;;;;;;;;;;5023622;28;20067;-56
2022/03/20 09:10:23;;;;;;;42.20;26.02;;;;;;;;;;5025170;28;20017;-55
2022/03/20 09:12:49;;;;;;;43.63;26.00;;;;;;;;;;5029709;28;20033;-55
2022/03/20 09:15:16;;;;;;;36.85;24.00;;;;;;;;;;5026301;28;20040;-55
2022/03/20 09:20:28;;;;;;;34.83;21.08;;;;;;;;;;5027284;28;21291;-56
2022/03/20 09:22:55;;;;;;;36.95;22.45;;;;;;;;;;5027345;28;20033;-55
2022/03/20 09:25:21;;;;;;;35.78;22.83;;;;;;;;;;5026762;28;20032;-55
2022/03/20 09:27:51;;;;;;;33.15;22.00;;;;;;;;;;5024852;28;20022;-55
2022/03/20 09:30:17;;;;;;;33.42;21.48;;;;;;;;;;5024650;28;20408;-54
2022/03/20 09:32:44;;;;;;;37.38;21.92;;;;;;;;;;5024336;28;20086;-56
2022/03/20 09:35:10;;;;;;;34.90;20.92;;;;;;;;;;5022039;28;20436;-55
2022/03/20 09:37:36;;;;;;;35.50;20.33;;;;;;;;;;5020541;28;20025;-55
2022/03/20 09:40:03;;;;;;;32.85;20.15;;;;;;;;;;5024802;28;20040;-55
2022/03/20 09:42:29;;;;;;;31.85;20.45;;;;;;;;;;5029467;28;20029;-54
2022/03/20 09:44:55;;;;;;;33.33;21.58;;;;;;;;;;5026895;28;20078;-55
2022/03/20 09:47:23;;;;;;;34.22;20.17;;;;;;;;;;5020261;28;20018;-54
2022/03/20 09:49:50;;;;;;;35.88;21.83;;;;;;;;;;5022733;28;20108;-55
2022/03/20 09:52:19;;;;;;;37.72;23.63;;;;;;;;;;5024356;28;20029;-55
2022/03/20 09:54:46;;;;;;;43.83;32.20;;;;;;;;;;5020660;28;20076;-54
2022/03/20 09:57:13;;;;;;;52.30;34.47;;;;;;;;;;5020039;28;20547;-53
2022/03/20 09:59:39;;;;;;;39.22;24.27;;;;;;;;;;5031541;28;20037;-55
2022/03/20 10:02:06;;;;;;;35.55;24.15;;;;;;;;;;5018390;28;20163;-55
2022/03/20 10:04:35;;;;;;;37.13;25.10;;;;;;;;;;5025373;28;20033;-54
2022/03/20 10:07:01;;;;;;;36.22;25.23;;;;;;;;;;5021761;28;20071;-54
2022/03/20 10:09:28;;;;;;;36.15;23.92;;;;;;;;;;5022809;28;20360;-54
2022/03/20 10:11:55;;;;;;;35.83;23.95;;;;;;;;;;5021261;28;20025;-55
2022/03/20 10:14:20;;;;;;;36.22;24.77;;;;;;;;;;5025288;28;20757;-54
2022/03/20 10:16:48;;;;;;;37.53;24.75;;;;;;;;;;5026235;28;20116;-54
2022/03/20 10:19:40;;;;;;;39.13;24.80;;;;;;;;;;5017863;28;20382;-55
2022/03/20 10:22:07;;;;;;;35.55;23.10;;;;;;;;;;5011062;28;20065;-54
2022/03/20 10:24:40;;;;;;;35.05;23.60;;;;;;;;;;5027858;28;20468;-53
2022/03/20 10:27:07;;;;;;;25.05;17.20;;;;;;;;;;5030774;28;20025;-55
2022/03/20 10:29:34;;;;;;;36.13;24.38;;;;;;;;;;5029089;28;20087;-55
2022/03/20 10:32:02;;;;;;;38.40;23.77;;;;;;;;;;5028651;28;20460;-54
2022/03/20 10:34:28;;;;;;;57.00;37.72;;;;;;;;;;5025479;28;20029;-56
2022/03/20 10:36:54;;;;;;;48.85;33.33;;;;;;;;;;5026498;28;20602;-55
2022/03/20 10:39:21;;;;;;;35.67;23.65;;;;;;;;;;5028912;28;20663;-55
2022/03/20 10:41:48;;;;;;;33.25;22.73;;;;;;;;;;5035079;28;20029;-54
2022/03/20 10:44:18;;;;;;;32.78;21.77;;;;;;;;;;5026312;28;20496;-55
2022/03/20 10:46:55;;;;;;;32.13;22.35;;;;;;;;;;5026125;28;20431;-55
2022/03/20 10:49:21;;;;;;;32.95;20.90;;;;;;;;;;5028780;28;20021;-55
2022/03/20 10:52:00;;;;;;;35.10;22.67;;;;;;;;;;5027939;28;20397;-54
2022/03/20 10:54:37;;;;;;;34.88;22.27;;;;;;;;;;5022256;28;20033;-55
2022/03/20 10:57:05;;;;;;;37.10;23.77;;;;;;;;;;5030582;28;20017;-55
2022/03/20 10:59:31;;;;;;;36.80;24.23;;;;;;;;;;5023774;28;20060;-53
2022/03/20 11:01:58;;;;;;;33.70;23.98;;;;;;;;;;5025513;28;20021;-55
2022/03/20 11:04:24;;;;;;;34.40;24.23;;;;;;;;;;5026897;28;20080;-55
2022/03/20 11:06:51;;;;;;;35.35;24.73;;;;;;;;;;5023269;28;20103;-55
2022/03/20 11:09:17;;;;;;;35.65;24.95;;;;;;;;;;5025335;28;20511;-55
2022/03/20 11:11:51;;;;;;;40.63;24.58;;;;;;;;;;5024668;28;20029;-54
2022/03/20 11:14:22;;;;;;;37.15;24.35;;;;;;;;;;5029594;28;20145;-56
2022/03/20 11:16:49;;;;;;;36.45;24.58;;;;;;;;;;5029189;28;20564;-54
2022/03/20 11:19:17;;;;;;;35.03;23.98;;;;;;;;;;5027871;28;20186;-55
2022/03/20 11:21:45;;;;;;;35.53;23.92;;;;;;;;;;5027872;28;20025;-56
2022/03/20 11:24:12;;;;;;;37.47;26.08;;;;;;;;;;5028099;28;20021;-55
2022/03/20 11:26:43;;;;;;;34.83;24.27;;;;;;;;;;5022619;28;20072;-56
2022/03/20 11:29:09;;;;;;;38.65;25.60;;;;;;;;;;5025725;28;20021;-56
2022/03/20 11:31:36;;;;;;;39.17;25.02;;;;;;;;;;5035672;28;20025;-53
2022/03/20 11:34:06;;;;;;;44.85;28.55;;;;;;;;;;5025366;28;20029;-56
2022/03/20 11:36:32;;;;;;;38.60;25.60;;;;;;;;;;5029839;28;20116;-56
2022/03/20 11:39:11;;;;;;;35.78;25.38;;;;;;;;;;5023521;28;20472;-56
2022/03/20 11:41:38;;;;;;;38.65;26.23;;;;;;;;;;5032493;28;20428;-56
2022/03/20 11:44:20;;;;;;;34.28;25.23;;;;;;;;;;5024660;28;20036;-56
2022/03/20 11:46:47;;;;;;;40.25;26.33;;;;;;;;;;5027882;28;20030;-56
2022/03/20 11:49:13;;;;;;;32.95;23.80;;;;;;;;;;5031068;28;20013;-54
2022/03/20 11:51:56;;;;;;;34.92;24.98;;;;;;;;;;5024560;28;20018;-56
2022/03/20 11:54:32;;;;;;;35.72;24.92;;;;;;;;;;5028047;28;20046;-56
2022/03/20 11:56:59;;;;;;;37.50;26.30;;;;;;;;;;5024276;28;20030;-56
2022/03/20 11:59:44;;;;;;;36.92;24.67;;;;;;;;;;5025606;28;20104;-56
2022/03/20 12:02:12;;;;;;;37.13;25.25;;;;;;;;;;5026267;28;20033;-56
2022/03/20 12:04:46;;;;;;;36.17;25.65;;;;;;;;;;5027556;28;20040;-54
2022/03/20 12:07:12;;;;;;;;;;;;;;;;;;5026518;28;20133;-55
2022/03/20 12:09:40;;;;;;;35.85;25.50;;;;;;;;;;5018860;28;20000;-54
2022/03/20 12:12:18;;;;;;;36.85;25.80;;;;;;;;;;5030095;28;20103;-55
2022/03/20 12:14:53;;;;;;;35.92;25.15;;;;;;;;;;5025059;28;20501;-56
2022/03/20 12:17:19;;;;;;;36.08;25.13;;;;;;;;;;5033789;28;20558;-55
2022/03/20 12:19:48;;;;;;;36.78;26.27;;;;;;;;;;5031937;28;20433;-54
2022/03/20 12:22:18;;;;;;;42.10;28.20;;;;;;;;;;5028843;28;20504;-57
2022/03/20 12:25:13;;;;;;;41.22;28.08;;;;;;;;;;5026111;28;20033;-57
2022/03/20 12:27:39;;;;;;;43.72;30.23;;;;;;;;;;5018866;28;20167;-57
2022/03/20 12:30:07;;;;;;;42.30;30.00;;;;;;;;;;5025559;28;20078;-57
2022/03/20 12:32:55;;;;;;;45.90;30.55;;;;;;;;;;5025971;28;20465;-57
2022/03/20 12:35:22;;;;;;;43.67;29.40;;;;;;;;;;5029214;28;20059;-57
2022/03/20 12:37:48;;;;;;;43.05;30.35;;;;;;;;;;5032156;28;20040;-57
2022/03/20 12:40:20;;;;;;;49.47;32.25;;;;;;;;;;5026923;28;20594;-57
2022/03/20 12:43:05;;;;;;;48.15;33.58;;;;;;;;;;5015589;28;20072;-56
2022/03/20 12:45:32;;;;;;;53.55;38.08;;;;;;;;;;5018812;28;20579;-58
2022/03/20 12:47:59;;;;;;;48.30;34.10;;;;;;;;;;5021532;28;20017;-58
2022/03/20 12:50:30;;;;;;;48.97;32.80;;;;;;;;;;5020030;28;20040;-59
2022/03/20 12:53:04;;;;;;;48.78;34.08;;;;;;;;;;5023009;28;20090;-57
2022/03/20 12:55:30;;;;;;;48.53;33.58;;;;;;;;;;5019660;28;20040;-59
2022/03/20 12:57:56;;;;;;;51.75;34.78;;;;;;;;;;5023129;28;20025;-59
2022/03/20 13:00:23;;;;;;;53.42;33.97;;;;;;;;;;5021879;28;20495;-59
2022/03/20 13:03:00;;;;;;;50.00;35.08;;;;;;;;;;5023612;28;20036;-59
2022/03/20 13:05:27;;;;;;;53.58;36.88;;;;;;;;;;5023486;28;20025;-58
2022/03/20 13:07:53;;;;;;;56.85;37.20;;;;;;;;;;5020891;28;20053;-60
2022/03/20 13:10:21;;;;;;;59.95;39.15;;;;;;;;;;5030090;28;20287;-60
2022/03/20 13:12:57;;;;;;;55.00;37.25;;;;;;;;;;5023368;28;20025;-60
2022/03/20 13:15:27;;;;;;;58.40;40.50;;;;;;;;;;5029283;28;20033;-60
2022/03/20 13:17:54;;;;;;;57.55;41.28;;;;;;;;;;5026645;28;20029;-61
2022/03/20 13:20:21;;;;;;;59.35;40.53;;;;;;;;;;5027053;28;20117;-60
2022/03/20 13:22:47;;;;;;;59.30;38.78;;;;;;;;;;5026789;28;20099;-60
2022/03/20 13:25:16;;;;;;;54.83;37.83;;;;;;;;;;5021920;28;20863;-60
2022/03/20 13:27:43;;;;;;;55.35;38.03;;;8.30;99.90;;;;;;5025438;28;20025;-60
2022/03/20 13:30:09;;;;;;;58.05;39.47;;;;;;;;;;5023803;28;20210;-60
2022/03/20 13:32:36;;;;;;;54.60;36.85;;;;;;;;;;5025807;28;20396;-58
2022/03/20 13:35:02;;;;;;;55.55;38.25;;;;;;;;;;5020170;28;20033;-59
2022/03/20 13:37:28;;;;;;;57.55;38.83;;;;;;;;;;5022693;28;20064;-60
2022/03/20 13:39:55;;;;;;;54.42;37.20;;;8.30;99.90;;;;;;5019545;28;20060;-58
2022/03/20 13:42:23;;;;;;;55.15;37.38;;;8.40;99.90;;;;;;5024921;28;20085;-60
2022/03/20 13:44:52;;;;;;;54.35;37.45;;;8.30;99.90;;;;;;5023109;28;20107;-59
2022/03/20 13:47:18;;;;;;;51.67;35.80;;;;;;;;;;5016953;28;20112;-59
2022/03/20 13:49:44;;;;;;;51.50;34.97;;;8.40;99.90;;;;;;5023803;28;20380;-59
2022/03/20 13:52:22;;;;;;;46.22;33.30;;;8.50;99.90;;;;;;5022778;28;20111;-59
2022/03/20 13:55:12;;;;;;;49.25;34.30;;;;;;;;;;5025568;28;20093;-59
2022/03/20 13:57:52;;;;;;;50.92;35.45;;;;;;;;;;5021475;28;20103;-58
2022/03/20 14:00:19;;;;;;;47.88;33.80;;;;;;;;;;5024118;28;20061;-59
2022/03/20 14:02:48;;;;;;;48.22;33.83;;;;;;;;;;5025555;28;20067;-59
2022/03/20 14:05:21;;;;;;;47.90;35.47;;;;;;;;;;5023627;28;20037;-57
2022/03/20 14:07:47;;;;;;;;;;;;;;;;;;5025520;28;20022;-57
2022/03/20 14:10:21;;;;;;;51.47;34.35;;;;;;;;;;5030869;28;19920;-59
2022/03/20 14:12:48;;;;;;;49.10;34.03;;;;;;;;;;5023163;28;20033;-59
2022/03/20 14:15:17;;;;;;;48.10;33.85;;;;;;;;;;5027340;28;20034;-60
2022/03/20 14:17:44;;;;;;;50.67;34.47;;;;;;;;;;5025597;28;20072;-60
2022/03/20 14:20:14;;;;;;;47.63;34.63;;;;;;;;;;5025007;28;20668;-58
2022/03/20 14:22:44;;;;;;;47.70;32.60;;;;;;;;;;5024222;28;20017;-57
2022/03/20 14:25:14;;;;;;;49.25;34.72;;;8.50;99.90;;;;;;5019801;28;20452;-59
2022/03/20 14:27:40;;;;;;;50.72;35.53;;;8.60;99.90;;;;;;5031059;28;20021;-57
2022/03/20 14:41:50;;;;;;;51.80;37.25;;;;;;;;;;5027598;28;20120;-57
2022/03/20 14:44:17;;;;;;;55.30;37.60;;;;;;;;;;5026993;28;20103;-59
2022/03/20 14:46:51;;;;;;;51.15;36.42;;;;;;;;;;5023418;28;20044;-58
2022/03/20 14:49:17;;;;;;;52.80;38.00;;;;;;;;;;5024809;28;20107;-58
2022/03/20 14:51:45;;;;;;;54.45;39.05;;;;;;;;;;5027948;28;20052;-58
2022/03/20 14:54:11;;;;;;;55.22;37.97;;;;;;;;;;5024118;28;20029;-57
2022/03/20 14:56:38;;;;;;;53.92;39.00;;;;;;;;;;5023938;28;20037;-57
2022/03/20 14:59:04;;;;;;;51.97;36.65;;;;;;;;;;5029653;28;20026;-58
2022/03/20 15:01:30;;;;;;;51.75;37.20;;;;;;;;;;5029785;28;20040;-57
2022/03/20 15:03:58;;;;;;;47.40;33.45;;;;;;;;;;5036988;28;20014;-58